Time;durP1;ratioP1;P1;durP2;ratioP2;P2;SDS_P1;SDS_P2;PMS_P1;PMS_P2;Temp;Humidity;BMP_temperature;BMP_pressure;BME280_temperature;BME280_humidity;BME280_pressure;Samples;Min_cycle;Max_cycle;Signal;HPM_P1;HPM_P2
2022/10/26 00:04:54;;;;;;;17.23;6.83;;;;;;;11.05;100.00;100916.70;5038719;58;1141179;-76
2022/10/26 00:10:00;;;;;;;29.00;6.80;;;;;;;11.04;100.00;100920.30;5088779;58;1141197;-76
2022/10/26 00:15:06;;;;;;;50.93;7.67;;;;;;;11.03;100.00;100922.10;5088715;58;1141132;-76
2022/10/26 00:20:13;;;;;;;32.43;7.00;;;;;;;10.98;100.00;100924.27;5039842;58;1141253;-76
2022/10/26 00:25:18;;;;;;;40.63;8.27;;;;;;;10.94;100.00;100933.38;5088847;58;1141099;-75
2022/10/26 00:30:24;;;;;;;26.30;7.00;;;;;;;10.87;100.00;100932.11;5073129;58;1141107;-75
2022/10/26 00:35:30;;;;;;;17.13;6.83;;;;;;;10.82;100.00;100930.30;5050064;58;1139134;-75
2022/10/26 00:40:36;;;;;;;15.65;7.12;;;;;;;10.83;100.00;100930.19;4888612;60;1138973;-75
2022/10/26 00:45:44;;;;;;;18.00;7.15;;;;;;;10.83;100.00;100922.73;4905302;60;1143205;-76
2022/10/26 00:50:51;;;;;;;9.43;5.80;;;;;;;10.86;100.00;100931.27;4814647;59;1143129;-75
2022/10/26 00:55:57;;;;;;;13.62;7.12;;;;;;;10.87;100.00;100931.63;4965604;59;1141166;-75
2022/10/26 01:01:03;;;;;;;12.70;7.03;;;;;;;10.86;100.00;100931.27;4966534;59;1143128;-75
2022/10/26 01:06:10;;;;;;;14.70;7.10;;;;;;;10.86;100.00;100935.70;5009000;58;1143148;-76
2022/10/26 01:11:16;;;;;;;10.13;6.37;;;;;;;10.84;100.00;100934.53;4944294;59;1143115;-76
2022/10/26 01:16:33;;;;;;;16.07;6.77;;;;;;;10.84;100.00;100934.53;4966533;59;1143170;-76
2022/10/26 01:21:54;;;;;;;9.87;6.97;;;;;;;10.88;100.00;100937.77;4967053;59;1143237;-75
2022/10/26 01:27:33;;;;;;;11.57;8.17;;;;;;;10.90;100.00;100930.57;4967204;59;1141173;-76
2022/10/26 01:32:52;;;;;;;11.63;7.20;;;;;;;10.81;100.00;100933.89;5032152;58;1143289;-76
2022/10/26 01:38:16;;;;;;;10.83;7.07;;;;;;;10.78;100.00;100932.31;5007153;58;1143201;-76
2022/10/26 01:43:26;;;;;;;7.53;5.73;;;;;;;10.78;100.00;100928.81;4739093;62;1143293;-75
2022/10/26 01:48:33;;;;;;;11.37;5.70;;;;;;;10.81;100.00;100930.77;4701010;62;1141260;-76
2022/10/26 01:53:45;;;;;;;19.50;7.83;;;;;;;10.91;100.00;100933.59;4688482;61;1143334;-75
2022/10/26 01:59:13;;;;;;;10.77;7.97;;;;;;;10.93;100.00;100934.33;4759485;62;1143253;-75
2022/10/26 02:04:56;;;;;;;11.37;5.63;;;;;;;10.82;100.00;100929.81;4663700;63;1141373;-75
2022/10/26 02:10:09;;;;;;;7.80;6.13;;;;;;;10.87;100.00;100941.38;4725686;62;1141439;-76
2022/10/26 02:15:35;;;;;;;9.20;6.87;;;;;;;10.90;100.00;100939.36;4676626;62;1139167;-76
2022/10/26 02:20:47;;;;;;;14.03;7.77;;;;;;;10.93;100.00;100939.62;4953146;58;1139211;-76
2022/10/26 02:25:59;;;;;;;12.45;7.95;;;;;;;10.89;100.00;100940.31;4967727;59;1139001;-76
2022/10/26 02:31:08;;;;;;;10.63;6.22;;;;;;;10.81;100.00;100945.32;4967732;59;1143474;-74
2022/10/26 02:36:18;;;;;;;16.50;6.43;;;;;;;10.78;100.00;100945.53;4956135;59;1143090;-76
2022/10/26 02:41:28;;;;;;;10.20;6.87;;;;;;;10.76;100.00;100942.15;4877873;59;1143228;-76
2022/10/26 02:46:35;;;;;;;55.87;9.57;;;;;;;10.74;100.00;100942.73;4935976;59;1143174;-76
2022/10/26 02:51:53;;;;;;;39.47;11.37;;;;;;;10.65;100.00;100947.38;4939229;59;1143088;-75
2022/10/26 02:57:19;;;;;;;28.40;10.03;;;;;;;10.64;100.00;100948.80;4944831;59;1145418;-76
2022/10/26 03:02:25;;;;;;;30.87;10.60;;;;;;;10.67;100.00;100943.30;4953092;59;1145305;-76
2022/10/26 03:07:30;;;;;;;58.43;11.40;;;;;;;10.78;100.00;100955.27;4998999;58;1145176;-76
2022/10/26 03:12:36;;;;;;;149.53;12.43;;;;;;;10.83;100.00;100960.62;5089859;58;1145251;-76
2022/10/26 03:17:42;;;;;;;98.47;12.63;;;;;;;10.86;100.00;100958.20;5089980;58;1147403;-76
2022/10/26 03:22:48;;;;;;;64.73;9.80;;;;;;;10.84;100.00;100955.70;5089951;58;1145493;-76
2022/10/26 03:28:02;;;;;;;29.03;8.73;;;;;;;10.80;100.00;100948.08;5089959;58;1143171;-76
2022/10/26 03:33:08;;;;;;;44.10;9.80;;;;;;;10.80;100.00;100970.56;5035073;58;1143281;-76
2022/10/26 03:38:13;;;;;;;98.43;10.60;;;;;;;10.77;100.00;100963.69;4921536;59;1143235;-76
2022/10/26 03:43:20;;;;;;;60.90;10.47;;;;;;;10.78;100.00;100969.83;4835929;60;1145273;-75
2022/10/26 03:48:26;;;;;;;78.17;8.87;;;;;;;10.73;100.00;100969.30;4939576;60;1145296;-75
2022/10/26 03:53:32;;;;;;;52.33;8.33;;;;;;;10.63;100.00;100977.05;4955286;58;1143076;-76
2022/10/26 03:58:38;;;;;;;60.27;9.60;;;;;;;10.45;100.00;100974.37;5012450;58;1143177;-76
2022/10/26 04:03:45;;;;;;;30.63;9.37;;;;;;;10.26;100.00;100979.23;5025109;59;1143195;-76
2022/10/26 04:08:52;;;;;;;91.50;9.27;;;;;;;10.16;100.00;100987.77;5025118;58;1143318;-76
2022/10/26 04:14:04;;;;;;;54.77;8.55;;;;;;;10.06;100.00;100980.58;5046818;58;1143293;-76
2022/10/26 04:19:06;;;;;;;50.37;11.03;;;;;;;9.99;100.00;100980.61;5044459;58;1143184;-76
2022/10/26 04:24:12;;;;;;;65.50;10.03;;;;;;;9.92;100.00;100983.31;5041869;58;1142511;-75
2022/10/26 04:29:18;;;;;;;67.77;11.30;;;;;;;9.92;100.00;100979.35;5059478;58;1143105;-76
2022/10/26 04:34:24;;;;;;;63.93;9.77;;;;;;;9.94;100.00;100975.63;5002353;58;1143123;-76
2022/10/26 04:39:30;;;;;;;54.17;8.60;;;;;;;9.96;100.00;100983.45;4913448;59;1141088;-75
2022/10/26 04:44:36;;;;;;;86.77;10.20;;;;;;;9.94;100.00;100987.52;5075344;58;1141061;-74
2022/10/26 04:49:41;;;;;;;50.80;9.77;;;;;;;9.79;100.00;100982.80;5075349;58;1143202;-76
2022/10/26 04:54:47;;;;;;;37.03;8.03;;;;;;;9.72;100.00;100978.88;5108700;57;1141186;-75
2022/10/26 04:59:53;;;;;;;117.93;10.37;;;;;;;9.65;100.00;100982.87;5104368;57;1141098;-76
2022/10/26 05:04:59;;;;;;;56.97;9.13;;;;;;;9.68;100.00;100979.19;5159092;57;1143140;-76
2022/10/26 05:10:05;;;;;;;22.73;6.67;;;;;;;9.68;100.00;100978.70;5159092;57;1138940;-76
2022/10/26 05:15:13;;;;;;;143.20;10.47;;;;;;;9.73;100.00;100981.90;5133173;57;1139188;-76
2022/10/26 05:20:18;;;;;;;88.00;9.47;;;;;;;9.63;100.00;100978.16;5159041;57;1143126;-76
2022/10/26 05:25:25;;;;;;;107.93;9.07;;;;;;;9.62;100.00;100984.89;5159116;57;1139029;-75
2022/10/26 05:30:31;;;;;;;55.77;7.90;;;;;;;9.69;100.00;100988.80;5158992;57;1141059;-75
2022/10/26 05:35:38;;;;;;;97.90;8.87;;;;;;;9.74;100.00;100998.12;5155267;57;1139196;-75
2022/10/26 05:40:49;;;;;;;70.20;8.13;;;;;;;9.69;100.00;101006.81;5072836;58;1139145;-75
2022/10/26 05:45:55;;;;;;;42.67;7.23;;;;;;;9.63;100.00;101022.20;5078326;57;1139025;-75
2022/10/26 05:51:02;;;;;;;43.87;7.93;;;;;;;9.62;100.00;101021.86;5091714;57;1138938;-75
2022/10/26 05:56:20;;;;;;;46.87;7.57;;;;;;;9.58;100.00;101023.00;5096191;57;1138992;-75
2022/10/26 06:01:36;;;;;;;108.07;8.87;;;;;;;9.58;100.00;101036.20;5125585;57;1138975;-75
2022/10/26 06:06:45;;;;;;;80.83;8.43;;;;;;;9.53;100.00;101032.53;5156664;57;1138969;-75
2022/10/26 06:11:51;;;;;;;36.67;7.23;;;;;;;9.47;100.00;101038.23;5156875;57;1141020;-76
2022/10/26 06:17:14;;;;;;;71.93;8.23;;;;;;;9.43;100.00;101041.53;5126662;57;1141472;-76
2022/10/26 06:22:33;;;;;;;51.63;7.00;;;;;;;9.51;100.00;101038.38;5156502;57;1141325;-76
2022/10/26 06:27:58;;;;;;;78.07;8.40;;;;;;;9.55;100.00;101047.81;5149575;57;1141313;-76
2022/10/26 06:33:04;;;;;;;26.13;7.43;;;;;;;9.64;100.00;101055.59;5152627;57;1141096;-76
2022/10/26 06:38:20;;;;;;;43.58;7.10;;;;;;;9.58;100.00;101050.25;5124419;57;1141026;-77
2022/10/26 06:43:32;;;;;;;45.43;7.57;;;;;;;9.62;100.00;101055.72;5084826;58;1141055;-76
2022/10/26 06:49:09;;;;;;;37.53;6.57;;;;;;;9.70;100.00;101063.13;5052469;58;1141064;-75
2022/10/26 06:54:20;;;;;;;82.63;7.53;;;;;;;9.69;100.00;101072.00;5106410;57;1141040;-76
2022/10/26 06:59:48;;;;;;;70.97;7.13;;;;;;;9.62;100.00;101077.32;5165028;57;1141075;-75
2022/10/26 07:04:53;;;;;;;16.03;6.27;;;;;;;9.49;100.00;101085.16;5165488;57;1141024;-75
2022/10/26 07:10:00;;;;;;;16.23;5.60;;;;;;;9.43;100.00;101080.29;5165549;57;1141226;-76
2022/10/26 07:15:10;;;;;;;25.20;8.40;;;;;;;9.43;100.00;101086.89;5165553;57;1141016;-75
2022/10/26 07:20:19;;;;;;;17.37;8.23;;;;;;;9.37;100.00;101086.80;5136729;57;1141146;-75
2022/10/26 07:25:27;;;;;;;20.83;9.53;;;;;;;9.37;100.00;101085.95;5165397;57;1139027;-76
2022/10/26 07:30:32;;;;;;;57.13;9.17;;;;;;;9.45;100.00;101087.17;5176744;57;1139309;-75
2022/10/26 07:35:39;;;;;;;16.80;10.30;;;;;;;9.57;100.00;101089.96;5176561;57;1138932;-76
2022/10/26 07:40:45;;;;;;;60.27;10.13;;;;;;;9.67;100.00;101091.91;5081699;58;1141513;-75
2022/10/26 07:45:51;;;;;;;16.37;10.03;;;;;;;9.78;100.00;101095.16;5081427;58;1141043;-75
2022/10/26 07:50:57;;;;;;;57.07;11.50;;;;;;;9.82;100.00;101093.55;5081464;58;1141194;-75
2022/10/26 07:56:02;;;;;;;16.30;8.87;;;;;;;9.88;100.00;101105.52;5134824;57;1141062;-76
2022/10/26 08:01:14;;;;;;;47.00;11.73;;;;;;;9.91;100.00;101107.13;5132552;57;1139027;-75
2022/10/26 08:06:21;;;;;;;18.10;10.37;;;;;;;9.84;100.00;101111.47;5165245;57;1141197;-75
2022/10/26 08:11:26;;;;;;;14.97;9.60;;;;;;;9.85;100.00;101115.81;5165894;57;1141291;-75
2022/10/26 08:16:33;;;;;;;23.07;11.03;;;;;;;9.85;100.00;101114.96;5109991;57;1139016;-75
2022/10/26 08:21:39;;;;;;;26.40;11.20;;;;;;;9.84;100.00;101122.52;5082004;57;1141095;-75
2022/10/26 08:26:45;;;;;;;17.47;10.63;;;;;;;9.91;100.00;101134.39;5081788;58;1141088;-76
2022/10/26 08:31:51;;;;;;;19.53;10.97;;;;;;;9.94;100.00;101135.96;5081755;58;1141062;-75
2022/10/26 08:36:57;;;;;;;20.62;9.63;;;;;;;10.03;100.00;101130.94;5067325;58;1141049;-76
2022/10/26 08:42:10;;;;;;;14.60;10.03;;;;;;;10.11;100.00;101124.66;5073038;58;1141372;-75
2022/10/26 08:47:23;;;;;;;18.80;11.27;;;;;;;10.18;100.00;101124.68;5072935;58;1141123;-75
2022/10/26 08:52:50;;;;;;;17.93;10.73;;;;;;;10.23;100.00;101127.03;5031199;58;1145247;-75
2022/10/26 08:57:56;;;;;;;13.40;9.10;;;;;;;10.35;100.00;101130.17;5072921;58;1145213;-75
2022/10/26 09:03:03;;;;;;;21.10;10.47;;;;;;;10.48;100.00;101124.42;5072958;58;1143061;-75
2022/10/26 09:08:34;;;;;;;23.00;12.37;;;;;;;10.52;100.00;101120.63;5043196;58;1145292;-75
2022/10/26 09:13:59;;;;;;;20.93;12.20;;;;;;;10.57;100.00;101130.40;5073032;58;1145270;-76
2022/10/26 09:19:30;;;;;;;18.47;12.80;;;;;;;10.57;100.00;101129.55;4971384;59;1144553;-77
2022/10/26 09:24:42;;;;;;;17.13;13.90;;;;;;;10.67;100.00;101128.47;4909460;59;1145530;-76
2022/10/26 09:29:49;;;;;;;31.60;14.93;;;;;;;10.76;100.00;101135.77;5036928;57;1145207;-76
2022/10/26 09:35:04;;;;;;;25.40;14.40;;;;;;;10.89;100.00;101143.23;4996174;58;1145270;-76
2022/10/26 09:40:33;;;;;;;22.40;11.67;;;;;;;11.09;100.00;101146.67;4993299;58;1145191;-77
2022/10/26 09:45:51;;;;;;;36.63;15.73;;;;;;;11.29;100.00;101138.66;4983081;58;1145307;-76
2022/10/26 09:50:59;;;;;;;25.17;15.80;;;;;;;11.35;100.00;101142.19;4987334;59;1143328;-76
2022/10/26 09:56:13;;;;;;;24.10;16.50;;;;;;;11.40;100.00;101143.19;4987689;58;1143234;-76
2022/10/26 10:01:33;;;;;;;23.93;15.27;;;;;;;11.55;100.00;101137.64;5038769;58;1143134;-76
2022/10/26 10:06:40;;;;;;;23.50;13.93;;;;;;;11.77;100.00;101144.91;5052204;58;1143208;-76
2022/10/26 10:11:57;;;;;;;17.73;12.13;;;;;;;11.96;100.00;101151.89;5002649;58;1143157;-75
2022/10/26 10:17:09;;;;;;;24.30;15.07;;;;;;;12.07;100.00;101152.93;5004000;58;1143357;-76
2022/10/26 10:22:21;;;;;;;20.27;14.23;;;;;;;12.21;100.00;101150.10;5007658;58;1143128;-76
2022/10/26 10:27:28;;;;;;;23.33;14.40;;;;;;;12.31;100.00;101155.92;5069206;58;1143376;-75
2022/10/26 10:32:34;;;;;;;30.10;17.43;;;;;;;12.48;100.00;101151.16;5068445;58;1141245;-76
2022/10/26 10:37:45;;;;;;;20.20;13.90;;;;;;;12.67;100.00;101149.66;5088075;57;1141117;-76
2022/10/26 10:43:08;;;;;;;19.87;14.53;;;;;;;12.84;100.00;101150.98;5125793;57;1145410;-78
2022/10/26 10:48:27;;;;;;;19.37;13.60;;;;;;;12.96;100.00;101146.56;5125063;57;1145341;-76
2022/10/26 10:53:45;;;;;;;21.60;10.70;;;;;;;13.13;100.00;101153.22;5067854;57;1145261;-77
2022/10/26 10:59:26;;;;;;;19.97;11.53;;;;;;;13.30;100.00;101156.73;5173751;57;1145321;-76
2022/10/26 11:05:03;;;;;;;17.47;12.27;;;;;;;13.47;100.00;101153.59;5072692;58;1145295;-76
2022/10/26 11:10:13;;;;;;;18.97;12.27;;;;;;;13.68;100.00;101154.55;4860434;59;1145278;-76
2022/10/26 11:15:26;;;;;;;17.43;11.50;;;;;;;13.89;100.00;101151.13;5030520;58;1145384;-76
2022/10/26 11:20:36;;;;;;;15.60;9.97;;;;;;;14.06;100.00;101156.73;5077678;57;1145352;-76
2022/10/26 11:25:58;;;;;;;16.57;10.70;;;;;;;14.30;100.00;101157.03;5078596;57;1143259;-79
2022/10/26 11:31:08;;;;;;;23.40;8.58;;;;;;;14.52;100.00;101159.60;5090442;57;1145019;-77
2022/10/26 11:36:18;;;;;;;13.97;7.83;;;;;;;14.70;100.00;101155.87;5072633;58;1143194;-75
2022/10/26 11:41:37;;;;;;;17.43;8.77;;;;;;;14.88;100.00;101146.81;5072411;58;1141141;-78
2022/10/26 11:46:53;;;;;;;14.83;7.90;;;;;;;15.03;100.00;101144.17;5131136;57;1141066;-77
2022/10/26 11:52:22;;;;;;;17.97;9.57;;;;;;;15.31;100.00;101144.78;5073213;57;1141019;-76
2022/10/26 11:57:32;;;;;;;13.10;9.60;;;;;;;15.52;100.00;101151.89;5155367;57;1141148;-77
2022/10/26 12:02:41;;;;;;;13.13;9.77;;;;;;;15.55;100.00;101152.50;5155381;57;1141151;-79
2022/10/26 12:07:52;;;;;;;16.73;11.87;;;;;;;15.60;100.00;101163.58;5156144;57;1141057;-78
2022/10/26 12:13:23;;;;;;;21.30;12.80;;;;;;;15.70;100.00;101161.80;5093160;57;1141149;-75
2022/10/26 12:18:45;;;;;;;20.63;12.53;;;;;;;15.72;100.00;101151.84;5067650;58;1145194;-74
2022/10/26 12:23:58;;;;;;;26.67;14.80;;;;;;;15.86;100.00;101162.61;5129954;57;1145358;-78
2022/10/26 12:29:09;;;;;;;22.97;13.47;;;;;;;15.79;100.00;101150.80;5151945;57;1145268;-76
2022/10/26 12:34:33;;;;;;;18.87;11.57;;;;;;;16.01;100.00;101164.39;5156173;57;1145238;-76
2022/10/26 12:39:43;;;;;;;24.10;9.70;;;;;;;16.14;100.00;101159.63;5159588;57;1145245;-78
2022/10/26 12:44:56;;;;;;;13.03;9.13;;;;;;;16.23;100.00;101154.78;5165119;57;1143141;-76
2022/10/26 12:50:11;;;;;;;14.00;10.30;;;;;;;16.34;100.00;101148.48;5100250;57;1143065;-76
2022/10/26 12:55:36;;;;;;;18.13;10.77;;;;;;;16.46;100.00;101157.53;5081440;58;1145225;-75
2022/10/26 13:01:02;;;;;;;14.47;10.00;;;;;;;16.70;100.00;101150.92;5124010;57;1145289;-78
2022/10/26 13:06:17;;;;;;;17.63;9.60;;;;;;;16.75;100.00;101153.52;5165709;57;1145265;-78
2022/10/26 13:11:42;;;;;;;16.60;9.97;;;;;;;16.84;100.00;101149.98;5093684;57;1143132;-77
2022/10/26 13:16:46;;;;;;;23.77;9.97;;;;;;;16.97;100.00;101152.33;5165028;57;1141011;-76
2022/10/26 13:21:53;;;;;;;15.97;10.00;;;;;;;16.94;100.00;101149.13;5165581;57;1141188;-75
2022/10/26 13:27:14;;;;;;;21.40;11.10;;;;;;;17.03;100.00;101149.58;5165191;57;1143248;-76
2022/10/26 13:32:21;;;;;;;22.97;12.40;;;;;;;17.13;100.00;101141.03;5090021;57;1143136;-76
2022/10/26 13:37:31;;;;;;;22.13;12.37;;;;;;;17.30;100.00;101142.09;5132907;57;1143170;-76
2022/10/26 13:42:46;;;;;;;17.65;10.60;;;;;;;17.45;100.00;101148.14;5175119;57;1143415;-75
2022/10/26 13:48:05;;;;;;;25.33;11.77;;;;;;;18.20;100.00;101133.61;5081286;57;1143144;-77
2022/10/26 13:53:24;;;;;;;29.00;10.67;;;;;;;18.20;100.00;101133.61;5092101;57;1143189;-75
2022/10/26 13:58:41;;;;;;;19.17;10.87;;;;;;;18.92;100.00;101135.23;5121659;57;1145179;-75
2022/10/26 14:03:48;;;;;;;14.15;10.28;;;;;;;19.46;100.00;101137.17;5092967;57;1145199;-77
2022/10/26 14:09:01;;;;;;;17.55;9.48;;;;;;;19.78;100.00;101143.69;5081444;58;1145218;-75
2022/10/26 14:14:08;;;;;;;13.70;9.48;;;;;;;18.97;100.00;101134.23;5081831;57;1142625;-77
2022/10/26 14:19:27;;;;;;;16.80;9.33;;;;;;;18.37;100.00;101144.47;5081344;58;1143049;-75
2022/10/26 14:24:39;;;;;;;13.35;9.20;;;;;;;18.06;100.00;101143.52;5081393;58;1143384;-77
2022/10/26 14:29:44;;;;;;;13.10;7.87;;;;;;;18.54;100.00;101147.63;4987380;59;1143137;-77
2022/10/26 14:34:50;;;;;;;17.07;10.13;;;;;;;19.23;100.00;101134.23;5081424;58;1143139;-77
2022/10/26 14:39:56;;;;;;;16.93;10.50;;;;;;;18.79;100.00;101140.67;5081242;58;1145277;-77
2022/10/26 14:45:03;;;;;;;18.95;10.15;;;;;;;18.25;100.00;101139.36;5085441;57;1145279;-77
2022/10/26 14:50:22;;;;;;;23.38;11.60;;;;;;;17.84;100.00;101147.98;5081239;57;1145194;-76
2022/10/26 14:55:28;;;;;;;22.20;9.83;;;;;;;18.12;100.00;101144.75;5081181;57;1145167;-78
2022/10/26 15:00:34;;;;;;;12.33;8.80;;;;;;;18.82;100.00;101140.33;5121248;57;1143149;-75
2022/10/26 15:05:41;;;;;;;36.13;21.12;;;;;;;18.87;100.00;101149.59;5165294;57;1143143;-78
2022/10/26 15:10:48;;;;;;;25.45;14.68;;;;;;;18.52;100.00;101148.28;5134153;57;1145218;-77
2022/10/26 15:16:10;;;;;;;35.95;19.92;;;;;;;18.06;100.00;101154.22;5081062;58;1145406;-74
2022/10/26 15:21:29;;;;;;;49.98;28.27;;;;;;;17.36;100.00;101157.56;5081286;58;1145253;-75
2022/10/26 15:26:38;;;;;;;113.03;66.30;;;;;;;17.36;100.00;101157.56;5079225;58;1145243;-77
2022/10/26 15:31:44;;;;;;;122.27;68.90;;;;;;;16.68;100.00;101151.55;5080807;58;1147419;-78
2022/10/26 15:36:51;;;;;;;175.90;111.53;;;;;;;16.68;100.00;101151.55;5081121;58;1147308;-76
2022/10/26 15:41:57;;;;;;;154.87;102.73;;;;;;;16.48;100.00;101155.57;5064679;58;1149366;-77
2022/10/26 15:47:03;;;;;;;90.32;54.33;;;;;;;16.35;100.00;101161.66;4973068;58;1149483;-76
2022/10/26 15:52:10;;;;;;;65.03;34.70;;;;;;;16.25;100.00;101162.65;5113908;57;1143310;-75
2022/10/26 15:57:17;;;;;;;61.20;34.57;;;;;;;16.07;100.00;101169.16;5042135;58;1143460;-75
2022/10/26 16:02:23;;;;;;;50.67;25.03;;;;;;;15.79;100.00;101187.64;5112028;57;1143109;-75
2022/10/26 16:07:29;;;;;;;53.47;24.27;;;;;;;15.79;100.00;101187.64;5124951;57;1143082;-76
2022/10/26 16:12:35;;;;;;;43.83;20.93;;;;;;;15.59;100.00;101187.22;5072555;57;1143185;-76
2022/10/26 16:17:40;;;;;;;36.20;16.83;;;;;;;15.45;100.00;101191.55;5037960;58;1143225;-75
2022/10/26 16:22:49;;;;;;;52.60;28.50;;;;;;;15.39;100.00;101193.44;5070738;58;1143246;-77
2022/10/26 16:27:56;;;;;;;68.10;39.23;;;;;;;15.21;100.00;101192.36;5104965;57;1143173;-77
2022/10/26 16:33:01;;;;;;;51.47;27.87;;;;;;;15.10;100.00;101197.30;5105774;57;1143192;-75
2022/10/26 16:38:08;;;;;;;39.00;19.40;;;;;;;14.89;100.00;101203.95;5105764;57;1143188;-76
2022/10/26 16:43:14;;;;;;;19.93;13.63;;;;;;;14.76;100.00;101212.63;5107265;57;1143181;-75
2022/10/26 16:48:19;;;;;;;23.40;15.00;;;;;;;14.71;100.00;101214.81;5148413;57;1143089;-75
2022/10/26 16:53:25;;;;;;;67.93;28.20;;;;;;;14.65;100.00;101218.86;5082132;57;1143367;-77
2022/10/26 16:58:32;;;;;;;41.53;20.47;;;;;;;14.51;100.00;101219.16;5087679;57;1143155;-77
2022/10/26 17:03:38;;;;;;;44.87;18.37;;;;;;;14.38;100.00;101228.59;5165755;57;1143172;-76
2022/10/26 17:08:44;;;;;;;38.97;17.23;;;;;;;14.24;100.00;101225.37;5125943;57;1143211;-76
2022/10/26 17:13:53;;;;;;;51.43;23.60;;;;;;;14.24;100.00;101234.68;5091556;57;1143191;-76
2022/10/26 17:19:00;;;;;;;38.33;18.20;;;;;;;14.22;100.00;101230.81;5087729;57;1141301;-77
2022/10/26 17:24:07;;;;;;;27.53;14.27;;;;;;;14.16;100.00;101233.14;5081851;58;1145239;-77
2022/10/26 17:29:15;;;;;;;40.10;19.77;;;;;;;14.00;100.00;101246.35;5107749;57;1145205;-77
2022/10/26 17:34:21;;;;;;;55.50;30.23;;;;;;;13.93;100.00;101242.48;5098651;57;1145111;-76
2022/10/26 17:39:28;;;;;;;70.50;34.63;;;;;;;13.86;100.00;101239.12;5092969;57;1145261;-76
2022/10/26 17:44:37;;;;;;;97.07;45.13;;;;;;;13.71;100.00;101238.05;5073096;58;1145360;-77
2022/10/26 17:49:43;;;;;;;83.90;38.77;;;;;;;13.49;100.00;101247.33;5042753;58;1145239;-76
2022/10/26 17:54:51;;;;;;;57.03;24.53;;;;;;;13.49;100.00;101254.45;5042777;57;1145178;-75
2022/10/26 17:59:57;;;;;;;29.63;13.47;;;;;;;13.45;100.00;101259.16;5071888;57;1145223;-75
2022/10/26 18:05:05;;;;;;;22.70;12.87;;;;;;;13.37;100.00;101270.39;5125637;57;1145174;-75
2022/10/26 18:10:13;;;;;;;24.50;11.93;;;;;;;13.29;100.00;101274.11;5125382;57;1145243;-77
2022/10/26 18:15:22;;;;;;;24.23;11.40;;;;;;;13.22;100.00;101270.25;5125393;57;1145240;-74
2022/10/26 18:20:29;;;;;;;21.47;11.80;;;;;;;13.03;100.00;101267.27;5085463;57;1145334;-77
2022/10/26 18:25:36;;;;;;;12.87;9.60;;;;;;;12.95;100.00;101273.17;5042639;58;1145408;-76
2022/10/26 18:30:43;;;;;;;20.63;12.87;;;;;;;12.87;100.00;101269.38;5072822;57;1143087;-78
2022/10/26 18:35:49;;;;;;;16.67;12.13;;;;;;;12.83;100.00;101274.06;5080506;57;1145398;-75
2022/10/26 18:40:56;;;;;;;24.73;11.40;;;;;;;12.78;100.00;101279.38;5083013;57;1145456;-76
2022/10/26 18:46:13;;;;;;;19.70;11.70;;;;;;;12.71;100.00;101297.55;5047686;58;1145281;-76
2022/10/26 18:51:24;;;;;;;23.70;12.83;;;;;;;12.71;100.00;101297.55;5051141;58;1145556;-77
2022/10/26 18:56:32;;;;;;;23.63;13.07;;;;;;;12.57;100.00;101291.94;5040784;58;1145220;-76
2022/10/26 19:01:54;;;;;;;23.93;14.97;;;;;;;12.56;100.00;101302.19;4919136;59;1145125;-75
2022/10/26 19:07:01;;;;;;;22.83;14.70;;;;;;;12.54;100.00;101300.12;5075132;57;1145182;-75
2022/10/26 19:12:07;;;;;;;21.57;15.30;;;;;;;12.53;100.00;101298.90;5074873;58;1145218;-78
2022/10/26 19:17:13;;;;;;;22.57;14.10;;;;;;;12.53;100.00;101306.38;5075065;58;1145319;-77
2022/10/26 19:22:19;;;;;;;26.97;14.10;;;;;;;12.63;100.00;101318.52;5108087;57;1145393;-78
2022/10/26 19:27:25;;;;;;;21.93;13.40;;;;;;;12.70;100.00;101318.41;5110906;57;1145617;-75
2022/10/26 19:32:31;;;;;;;25.10;15.73;;;;;;;12.68;100.00;101326.97;5105871;57;1145485;-78
2022/10/26 19:37:38;;;;;;;26.23;17.60;;;;;;;12.74;100.00;101332.31;5102222;57;1145255;-78
2022/10/26 19:42:44;;;;;;;52.00;25.97;;;;;;;12.74;100.00;101329.66;5117933;57;1145261;-76
2022/10/26 19:47:49;;;;;;;66.20;30.60;;;;;;;12.64;100.00;101342.77;5122148;57;1145389;-78
2022/10/26 19:52:56;;;;;;;49.07;22.63;;;;;;;12.58;100.00;101344.05;5128692;57;1143269;-76
2022/10/26 19:58:02;;;;;;;47.73;25.70;;;;;;;12.59;100.00;101347.08;5074645;58;1143138;-77
2022/10/26 20:03:11;;;;;;;36.80;22.80;;;;;;;12.60;100.00;101347.92;5158034;57;1143108;-76
2022/10/26 20:08:18;;;;;;;59.40;33.60;;;;;;;12.50;100.00;101345.58;5158584;57;1143045;-78
2022/10/26 20:13:25;;;;;;;77.03;41.03;;;;;;;12.44;100.00;101346.02;5158533;57;1143141;-77
2022/10/26 20:18:31;;;;;;;49.97;28.17;;;;;;;12.42;100.00;101343.95;5158475;57;1143204;-78
2022/10/26 20:23:37;;;;;;;47.77;28.90;;;;;;;12.41;100.00;101359.49;5094126;57;1143146;-77
2022/10/26 20:28:54;;;;;;;38.10;24.67;;;;;;;12.44;100.00;101361.45;5132919;57;1143148;-77
2022/10/26 20:33:57;;;;;;;33.87;20.37;;;;;;;12.40;100.00;101361.30;5121842;57;1143448;-76
2022/10/26 20:39:04;;;;;;;34.13;16.17;;;;;;;12.27;100.00;101358.67;5082777;57;1143439;-75
2022/10/26 20:44:22;;;;;;;32.17;15.10;;;;;;;12.23;100.00;101357.20;5108539;57;1143131;-76
2022/10/26 20:49:28;;;;;;;32.93;19.43;;;;;;;12.26;100.00;101362.77;5126413;57;1143425;-75
2022/10/26 20:54:57;;;;;;;49.57;26.17;;;;;;;12.24;100.00;101369.50;5122423;57;1143256;-77
2022/10/26 21:00:07;;;;;;;45.47;23.00;;;;;;;12.16;100.00;101376.31;5070593;57;1145166;-75
2022/10/26 21:05:14;;;;;;;39.20;17.30;;;;;;;12.12;100.00;101373.03;5100121;57;1145549;-77
2022/10/26 21:10:20;;;;;;;47.37;22.10;;;;;;;12.10;100.00;101374.09;5150505;57;1145556;-75
2022/10/26 21:15:26;;;;;;;43.23;24.77;;;;;;;12.05;100.00;101376.23;5138516;57;1145175;-77
2022/10/26 21:20:32;;;;;;;55.83;28.27;;;;;;;11.99;100.00;101366.89;5110936;57;1145307;-76
2022/10/26 21:25:37;;;;;;;37.47;23.07;;;;;;;12.05;100.00;101370.93;5118509;57;1145359;-75
2022/10/26 21:30:43;;;;;;;41.37;21.63;;;;;;;12.10;100.00;101367.45;5075057;57;1145378;-76
2022/10/26 21:35:55;;;;;;;38.33;20.77;;;;;;;12.12;100.00;101363.75;5150156;57;1145562;-77
2022/10/26 21:41:13;;;;;;;40.67;23.17;;;;;;;12.10;100.00;101367.45;5110988;57;1145464;-76
2022/10/26 21:46:20;;;;;;;54.37;28.00;;;;;;;12.11;100.00;101375.78;5103712;57;1145469;-75
2022/10/26 21:51:26;;;;;;;74.50;34.80;;;;;;;11.79;100.00;101382.84;5075629;57;1145233;-75
2022/10/26 21:56:31;;;;;;;67.60;30.20;;;;;;;11.42;100.00;101390.27;5075823;57;1145242;-77
2022/10/26 22:01:37;;;;;;;90.87;40.07;;;;;;;11.36;100.00;101383.56;5076501;57;1145236;-77
2022/10/26 22:06:43;;;;;;;64.13;29.33;;;;;;;11.40;100.00;101378.91;5100226;57;1145243;-77
2022/10/26 22:11:50;;;;;;;45.30;26.20;;;;;;;11.42;100.00;101373.89;5125382;57;1145413;-77
2022/10/26 22:16:56;;;;;;;42.77;23.67;;;;;;;11.40;100.00;101373.14;5108408;57;1145440;-77
2022/10/26 22:22:01;;;;;;;34.93;18.10;;;;;;;11.42;100.00;101373.05;5069194;57;1145472;-76
2022/10/26 22:27:07;;;;;;;32.00;18.67;;;;;;;11.43;100.00;101378.24;5042683;57;1145516;-77
2022/10/26 22:32:13;;;;;;;35.50;20.07;;;;;;;11.39;100.00;101379.39;5042665;58;1145149;-76
2022/10/26 22:37:19;;;;;;;30.00;18.77;;;;;;;11.41;100.00;101372.20;5042788;58;1145349;-76
2022/10/26 22:42:24;;;;;;;27.80;17.60;;;;;;;11.39;100.00;101374.09;5042614;58;1145521;-77
2022/10/26 22:47:30;;;;;;;37.00;16.90;;;;;;;11.19;100.00;101379.86;5125326;57;1145531;-76
2022/10/26 22:52:36;;;;;;;27.97;15.37;;;;;;;11.22;100.00;101378.34;5124152;57;1145528;-75